This is the latest recevied weather packets stored in our database for station/object PA5MB-15. If no packets are shown the sender has not sent any weather packets the latest 10 day(s).
| Time | Temp. | Humidity | Pressure | Rain* | Wind** | Luminosity | Snow |
|---|---|---|---|---|---|---|---|
| 1777819234 | 17.78° C | 91% | 1011.7 hPa | 2.03 mm | - | 22 W/m² | - |
| 1777818931 | 17.22° C | 92% | 1011.7 hPa | 2.29 mm | - | 51 W/m² | - |
| 1777818644 | 16.67° C | 95% | 1011.8 hPa | 2.29 mm | - | 61 W/m² | - |
| 1777818331 | 16.11° C | 97% | 1011.8 hPa | 2.29 mm | - | 45 W/m² | - |
| 1777818044 | 15.56° C | 97% | 1011.9 hPa | 2.29 mm | - | 33 W/m² | - |
| 1777817734 | 15.56° C | 97% | 1011.9 hPa | 2.29 mm | - | 16 W/m² | - |
| 1777817434 | 15.56° C | 97% | 1011.9 hPa | 2.29 mm | - | 12 W/m² | - |
| 1777817125 | 15.56° C | 96% | 1011.8 hPa | 2.29 mm | - | 11 W/m² | - |
| 1777816834 | 15.56° C | 96% | 1011.9 hPa | 2.29 mm | - | 10 W/m² | - |
| 1777816534 | 15.56° C | 96% | 1011.8 hPa | 2.29 mm | - | 13 W/m² | - |
| 1777816231 | 16.11° C | 96% | 1011.8 hPa | 2.29 mm | - | 4 W/m² | - |
| 1777815944 | 16.11° C | 94% | 1011.8 hPa | 1.52 mm | - | 5 W/m² | - |
| 1777815634 | 16.67° C | 93% | 1011.8 hPa | 0.25 mm | - | 8 W/m² | - |
| 1777815334 | 16.67° C | 93% | 1011.8 hPa | 0 mm | - | 7 W/m² | - |
| 1777815034 | 16.67° C | 92% | 1011.8 hPa | 0 mm | - | 4 W/m² | - |
| 1777814731 | 17.22° C | 92% | 1011.9 hPa | 0 mm | - | 14 W/m² | - |
| 1777814434 | 17.22° C | 92% | 1011.9 hPa | 0 mm | - | 23 W/m² | - |
| 1777814131 | 17.22° C | 92% | 1011.9 hPa | 0 mm | - | 24 W/m² | - |
| 1777813831 | 16.67° C | 92% | 1012 hPa | 0 mm | - | 22 W/m² | - |
| 1777813531 | 16.67° C | 92% | 1012 hPa | 0 mm | - | 22 W/m² | - |
| 1777813233 | 16.67° C | 93% | 1012 hPa | 0.25 mm | - | 23 W/m² | - |
| 1777812934 | 16.67° C | 93% | 1012 hPa | 0.25 mm | - | 22 W/m² | - |
| 1777812621 | 16.67° C | 94% | 1012.1 hPa | 0.51 mm | - | 24 W/m² | - |
| 1777812328 | 16.11° C | 95% | 1012.1 hPa | 0.51 mm | - | 22 W/m² | - |
| 1777812031 | 16.11° C | 95% | 1012.2 hPa | 0.76 mm | - | 25 W/m² | - |
* Rain latest hour (hover to see other rain measurements)
** Current wind speed in m/s (hover to see current wind gust speed)